X  Chiuso Dati meteorologici dell'aviazione (METAR)     LIPX Verona-Villafranca Valerio Catullo Airport
Temperatura
27°C Temperatura
11°C Punto di rugiada
37% Umidità



Vento
16 KM/H
10 MPH
4 M/S
9 KTS



100°
Est
Condizioni attuali

Sereno Sereno
Pressione 1019.92 (hPa) - 30.12 (inHg)
Visibilità 6.2 (miglio) - 10 (km)
Aeroporto
Codice-Aeroporto LIPX

Posizione: Verona-Villafranca Valerio Catullo Airport
Distanza: 50 (km)

Metar:
LIPX 100850Z 10009KT 060V130 CAVOK 27/11 Q1020

Ore: 10-08-2022 10:50 CEST